This is the latest recevied weather packets stored in our database for station/object W2SBL-1. If no packets are shown the sender has not sent any weather packets the latest 10 day(s).
| Time | Temp. | Humidity | Pressure | Rain* | Wind** | Luminosity | Snow |
|---|---|---|---|---|---|---|---|
| 1777452629 | 0.56° C | 50% | 1002 hPa | - | - | - | - |
| 1777451728 | 9.44° C | 50% | 1016.3 hPa | - | - | - | - |
| 1777450828 | 9.44° C | 50% | 1016.3 hPa | - | - | - | - |
| 1777449928 | -3.89° C | 49% | 994.7 hPa | - | - | - | - |
| 1777449028 | 10° C | 50% | 1016.5 hPa | - | - | - | - |
| 1777448128 | 10.56° C | 49% | 1016.4 hPa | - | - | - | - |
| 1777447228 | 10.56° C | 50% | 1016.6 hPa | - | - | - | - |
| 1777446328 | 11.11° C | 50% | 1016.7 hPa | - | - | - | - |
| 1777445428 | 11.67° C | 49% | 1016.8 hPa | - | - | - | - |
| 1777444528 | 12.22° C | 48% | 1017 hPa | - | - | - | - |
| 1777443628 | 12.22° C | 48% | 1017 hPa | - | - | - | - |
| 1777442728 | 12.78° C | 47% | 1017.3 hPa | - | - | - | - |
| 1777441828 | 12.78° C | 48% | 1017.6 hPa | - | - | - | - |
| 1777440927 | 12.78° C | 48% | 1017.7 hPa | - | - | - | - |
| 1777440027 | 12.78° C | 47% | 1018 hPa | - | - | - | - |
| 1777439127 | 12.78° C | 47% | 1018.6 hPa | - | - | - | - |
| 1777438227 | 12.78° C | 47% | 1018.6 hPa | - | - | - | - |
| 1777437327 | 12.78° C | 47% | 1018.6 hPa | - | - | - | - |
| 1777436427 | 12.78° C | 47% | 1018.5 hPa | - | - | - | - |
| 1777435527 | 12.78° C | 47% | 1018.5 hPa | - | - | - | - |
| 1777434627 | 12.22° C | 47% | 1018.3 hPa | - | - | - | - |
| 1777433727 | 12.22° C | 48% | 1018.1 hPa | - | - | - | - |
| 1777432827 | 11.67° C | 49% | 1018.3 hPa | - | - | - | - |
| 1777431927 | 11.67° C | 49% | 1018 hPa | - | - | - | - |
| 1777431027 | 11.67° C | 49% | 1017.9 hPa | - | - | - | - |
* Rain since midnight (hover to see other rain measurements)
** Current wind speed in m/s (hover to see current wind gust speed)